sensor_id;sensor_type;location;lat;lon;timestamp;pressure;altitude;pressure_sealevel;temperature;humidity
47054;BME280;32811;52.382;5.270;2023-07-28T00:00:29;100494.59;;;16.98;100.00
47054;BME280;32811;52.382;5.270;2023-07-28T00:02:55;100494.72;;;16.93;100.00
47054;BME280;32811;52.382;5.270;2023-07-28T00:05:22;100529.03;;;17.09;100.00
47054;BME280;32811;52.382;5.270;2023-07-28T00:07:48;100531.31;;;17.21;100.00
47054;BME280;32811;52.382;5.270;2023-07-28T00:10:15;100523.72;;;17.12;100.00
47054;BME280;32811;52.382;5.270;2023-07-28T00:12:42;100505.84;;;17.00;100.00
47054;BME280;32811;52.382;5.270;2023-07-28T00:15:09;100528.06;;;17.13;100.00
47054;BME280;32811;52.382;5.270;2023-07-28T00:17:36;100531.63;;;17.11;100.00
47054;BME280;32811;52.382;5.270;2023-07-28T00:20:02;100522.97;;;17.09;100.00
47054;BME280;32811;52.382;5.270;2023-07-28T00:22:29;100532.38;;;17.14;100.00
47054;BME280;32811;52.382;5.270;2023-07-28T00:24:56;100529.81;;;17.13;100.00
47054;BME280;32811;52.382;5.270;2023-07-28T00:27:22;100506.50;;;17.08;100.00
47054;BME280;32811;52.382;5.270;2023-07-28T00:29:49;100521.22;;;17.09;100.00
47054;BME280;32811;52.382;5.270;2023-07-28T00:32:16;100517.75;;;17.09;100.00
47054;BME280;32811;52.382;5.270;2023-07-28T00:34:42;100519.56;;;17.07;100.00
47054;BME280;32811;52.382;5.270;2023-07-28T00:37:09;100515.28;;;17.04;100.00
47054;BME280;32811;52.382;5.270;2023-07-28T00:39:36;100506.63;;;17.04;100.00
47054;BME280;32811;52.382;5.270;2023-07-28T00:42:03;100526.44;;;17.09;100.00
47054;BME280;32811;52.382;5.270;2023-07-28T00:44:29;100534.16;;;17.12;100.00
47054;BME280;32811;52.382;5.270;2023-07-28T00:46:56;100522.13;;;17.08;100.00
47054;BME280;32811;52.382;5.270;2023-07-28T00:49:24;100522.16;;;17.07;100.00
47054;BME280;32811;52.382;5.270;2023-07-28T00:51:51;100499.94;;;16.93;100.00
47054;BME280;32811;52.382;5.270;2023-07-28T00:54:18;100530.72;;;17.12;100.00
47054;BME280;32811;52.382;5.270;2023-07-28T00:56:45;100511.06;;;16.98;100.00
47054;BME280;32811;52.382;5.270;2023-07-28T00:59:12;100529.13;;;17.06;100.00
47054;BME280;32811;52.382;5.270;2023-07-28T01:01:39;100536.06;;;17.07;100.00
47054;BME280;32811;52.382;5.270;2023-07-28T01:04:06;100535.09;;;17.10;100.00
47054;BME280;32811;52.382;5.270;2023-07-28T01:06:52;100539.31;;;17.15;100.00
47054;BME280;32811;52.382;5.270;2023-07-28T01:09:24;100533.19;;;17.16;100.00
47054;BME280;32811;52.382;5.270;2023-07-28T01:11:55;100535.75;;;17.18;100.00
47054;BME280;32811;52.382;5.270;2023-07-28T01:14:22;100515.13;;;17.10;100.00
47054;BME280;32811;52.382;5.270;2023-07-28T01:16:49;100534.94;;;17.16;100.00
47054;BME280;32811;52.382;5.270;2023-07-28T01:19:20;100538.41;;;17.16;100.00
47054;BME280;32811;52.382;5.270;2023-07-28T01:21:54;100534.16;;;17.12;100.00
47054;BME280;32811;52.382;5.270;2023-07-28T01:26:53;100525.59;;;17.09;100.00
47054;BME280;32811;52.382;5.270;2023-07-28T01:29:21;100535.78;;;17.16;100.00
47054;BME280;32811;52.382;5.270;2023-07-28T01:31:48;100534.13;;;17.14;100.00
47054;BME280;32811;52.382;5.270;2023-07-28T01:34:15;100529.03;;;17.09;100.00
47054;BME280;32811;52.382;5.270;2023-07-28T01:36:41;100539.47;;;17.09;100.00
47054;BME280;32811;52.382;5.270;2023-07-28T01:39:08;100548.13;;;17.11;100.00
47054;BME280;32811;52.382;5.270;2023-07-28T01:41:35;100532.63;;;17.05;100.00
47054;BME280;32811;52.382;5.270;2023-07-28T01:44:01;100544.66;;;17.11;100.00
47054;BME280;32811;52.382;5.270;2023-07-28T01:46:28;100532.72;;;17.02;100.00
47054;BME280;32811;52.382;5.270;2023-07-28T01:48:55;100518.09;;;16.96;100.00
47054;BME280;32811;52.382;5.270;2023-07-28T01:51:22;100533.47;;;17.06;100.00
47054;BME280;32811;52.382;5.270;2023-07-28T01:53:48;100544.59;;;17.12;100.00
47054;BME280;32811;52.382;5.270;2023-07-28T01:56:15;100547.16;;;17.14;100.00
47054;BME280;32811;52.382;5.270;2023-07-28T01:58:42;100527.34;;;17.08;100.00
47054;BME280;32811;52.382;5.270;2023-07-28T02:01:08;100514.47;;;17.02;100.00
47054;BME280;32811;52.382;5.270;2023-07-28T02:03:35;100530.78;;;17.10;100.00
47054;BME280;32811;52.382;5.270;2023-07-28T02:06:01;100528.88;;;17.15;100.00
47054;BME280;32811;52.382;5.270;2023-07-28T02:08:28;100549.66;;;17.18;100.00
47054;BME280;32811;52.382;5.270;2023-07-28T02:10:55;100541.81;;;17.18;100.00
47054;BME280;32811;52.382;5.270;2023-07-28T02:13:21;100541.09;;;17.13;100.00
47054;BME280;32811;52.382;5.270;2023-07-28T02:15:48;100540.88;;;17.21;100.00
47054;BME280;32811;52.382;5.270;2023-07-28T02:18:14;100536.78;;;17.12;100.00
47054;BME280;32811;52.382;5.270;2023-07-28T02:20:41;100539.31;;;17.15;100.00
47054;BME280;32811;52.382;5.270;2023-07-28T02:23:07;100539.31;;;17.15;100.00
47054;BME280;32811;52.382;5.270;2023-07-28T02:25:34;100532.47;;;17.11;100.00
47054;BME280;32811;52.382;5.270;2023-07-28T02:28:01;100531.63;;;17.11;100.00
47054;BME280;32811;52.382;5.270;2023-07-28T02:30:27;100549.75;;;17.15;100.00
47054;BME280;32811;52.382;5.270;2023-07-28T02:32:54;100538.63;;;17.09;100.00
47054;BME280;32811;52.382;5.270;2023-07-28T02:35:21;100539.22;;;17.18;100.00
47054;BME280;32811;52.382;5.270;2023-07-28T02:37:47;100541.06;;;17.15;100.00
47054;BME280;32811;52.382;5.270;2023-07-28T02:40:14;100542.66;;;17.19;100.00
47054;BME280;32811;52.382;5.270;2023-07-28T02:42:41;100542.81;;;17.14;100.00
47054;BME280;32811;52.382;5.270;2023-07-28T02:45:08;100536.91;;;17.08;100.00
47054;BME280;32811;52.382;5.270;2023-07-28T02:47:36;100540.38;;;17.08;100.00
47054;BME280;32811;52.382;5.270;2023-07-28T02:50:03;100547.19;;;17.12;100.00
47054;BME280;32811;52.382;5.270;2023-07-28T02:52:30;100556.72;;;17.15;100.00
47054;BME280;32811;52.382;5.270;2023-07-28T02:54:56;100551.56;;;17.12;100.00
47054;BME280;32811;52.382;5.270;2023-07-28T02:57:23;100554.16;;;17.13;100.00
47054;BME280;32811;52.382;5.270;2023-07-28T02:59:50;100554.94;;;17.17;100.00
47054;BME280;32811;52.382;5.270;2023-07-28T03:02:16;100547.28;;;17.09;100.00
47054;BME280;32811;52.382;5.270;2023-07-28T03:04:43;100556.63;;;17.18;100.00
47054;BME280;32811;52.382;5.270;2023-07-28T03:07:10;100548.16;;;17.10;100.00
47054;BME280;32811;52.382;5.270;2023-07-28T03:09:36;100551.66;;;17.09;100.00
47054;BME280;32811;52.382;5.270;2023-07-28T03:12:03;100555.97;;;17.10;100.00
47054;BME280;32811;52.382;5.270;2023-07-28T03:14:31;100544.00;;;17.02;100.00
47054;BME280;32811;52.382;5.270;2023-07-28T03:16:58;100554.31;;;17.07;100.00
47054;BME280;32811;52.382;5.270;2023-07-28T03:19:25;100558.50;;;17.13;100.00
47054;BME280;32811;52.382;5.270;2023-07-28T03:21:51;100557.69;;;17.11;100.00
47054;BME280;32811;52.382;5.270;2023-07-28T03:24:18;100560.34;;;17.09;100.00
47054;BME280;32811;52.382;5.270;2023-07-28T03:26:45;100563.09;;;17.03;100.00
47054;BME280;32811;52.382;5.270;2023-07-28T03:29:11;100564.00;;;17.02;100.00
47054;BME280;32811;52.382;5.270;2023-07-28T03:31:38;100569.22;;;17.02;100.00
47054;BME280;32811;52.382;5.270;2023-07-28T03:34:05;100570.91;;;17.03;100.00
47054;BME280;32811;52.382;5.270;2023-07-28T03:36:31;100572.69;;;17.02;100.00
47054;BME280;32811;52.382;5.270;2023-07-28T03:38:59;100561.44;;;17.00;100.00
47054;BME280;32811;52.382;5.270;2023-07-28T03:41:25;100565.91;;;16.97;100.00
47054;BME280;32811;52.382;5.270;2023-07-28T03:43:52;100568.38;;;17.01;100.00
47054;BME280;32811;52.382;5.270;2023-07-28T03:46:19;100574.47;;;17.00;100.00
47054;BME280;32811;52.382;5.270;2023-07-28T03:48:46;100574.47;;;17.00;100.00
47054;BME280;32811;52.382;5.270;2023-07-28T03:51:12;100581.53;;;16.97;100.00
47054;BME280;32811;52.382;5.270;2023-07-28T03:53:39;100583.03;;;17.06;100.00
47054;BME280;32811;52.382;5.270;2023-07-28T03:56:05;100590.00;;;17.05;100.00
47054;BME280;32811;52.382;5.270;2023-07-28T03:58:32;100579.66;;;17.02;100.00
47054;BME280;32811;52.382;5.270;2023-07-28T04:00:58;100578.63;;;17.08;100.00
47054;BME280;32811;52.382;5.270;2023-07-28T04:03:25;100597.50;;;17.17;100.00
47054;BME280;32811;52.382;5.270;2023-07-28T04:05:52;100599.16;;;17.20;100.00
47054;BME280;32811;52.382;5.270;2023-07-28T04:08:18;100591.31;;;17.21;100.00
47054;BME280;32811;52.382;5.270;2023-07-28T04:10:45;100596.59;;;17.18;100.00
47054;BME280;32811;52.382;5.270;2023-07-28T04:13:12;100594.00;;;17.18;100.00
47054;BME280;32811;52.382;5.270;2023-07-28T04:15:38;100593.03;;;17.21;100.00
47054;BME280;32811;52.382;5.270;2023-07-28T04:18:05;100595.72;;;17.19;100.00
47054;BME280;32811;52.382;5.270;2023-07-28T04:20:32;100594.75;;;17.24;100.00
47054;BME280;32811;52.382;5.270;2023-07-28T04:22:58;100597.25;;;17.27;100.00
47054;BME280;32811;52.382;5.270;2023-07-28T04:25:25;100606.88;;;17.25;100.00
47054;BME280;32811;52.382;5.270;2023-07-28T04:27:52;100605.09;;;17.27;100.00
47054;BME280;32811;52.382;5.270;2023-07-28T04:30:18;100600.72;;;17.27;100.00
47054;BME280;32811;52.382;5.270;2023-07-28T04:32:45;100607.56;;;17.31;100.00
47054;BME280;32811;52.382;5.270;2023-07-28T04:35:12;100604.03;;;17.32;100.00
47054;BME280;32811;52.382;5.270;2023-07-28T04:37:39;100607.41;;;17.37;100.00
47054;BME280;32811;52.382;5.270;2023-07-28T04:40:06;100609.94;;;17.39;100.00
47054;BME280;32811;52.382;5.270;2023-07-28T04:42:34;100609.91;;;17.40;100.00
47054;BME280;32811;52.382;5.270;2023-07-28T04:45:03;100611.69;;;17.40;100.00
47054;BME280;32811;52.382;5.270;2023-07-28T04:47:30;100601.41;;;17.34;100.00
47054;BME280;32811;52.382;5.270;2023-07-28T04:49:56;100616.78;;;17.43;100.00
47054;BME280;32811;52.382;5.270;2023-07-28T04:52:23;100602.06;;;17.42;100.00
47054;BME280;32811;52.382;5.270;2023-07-28T04:54:50;100616.88;;;17.41;100.00
47054;BME280;32811;52.382;5.270;2023-07-28T04:57:16;100608.09;;;17.44;100.00
47054;BME280;32811;52.382;5.270;2023-07-28T04:59:44;100615.00;;;17.45;100.00
47054;BME280;32811;52.382;5.270;2023-07-28T05:02:11;100610.50;;;17.50;100.00
47054;BME280;32811;52.382;5.270;2023-07-28T05:04:37;100607.91;;;17.50;100.00
47054;BME280;32811;52.382;5.270;2023-07-28T05:07:04;100605.34;;;17.49;100.00
47054;BME280;32811;52.382;5.270;2023-07-28T05:09:31;100612.25;;;17.50;100.00
47054;BME280;32811;52.382;5.270;2023-07-28T05:11:57;100613.13;;;17.50;100.00
47054;BME280;32811;52.382;5.270;2023-07-28T05:14:24;100617.22;;;17.59;100.00
47054;BME280;32811;52.382;5.270;2023-07-28T05:16:51;100609.50;;;17.56;100.00
47054;BME280;32811;52.382;5.270;2023-07-28T05:19:17;100604.25;;;17.57;100.00
47054;BME280;32811;52.382;5.270;2023-07-28T05:21:44;100606.66;;;17.63;100.00
47054;BME280;32811;52.382;5.270;2023-07-28T05:24:10;100613.63;;;17.63;100.00
47054;BME280;32811;52.382;5.270;2023-07-28T05:26:38;100611.03;;;17.63;100.00
47054;BME280;32811;52.382;5.270;2023-07-28T05:29:05;100605.75;;;17.64;100.00
47054;BME280;32811;52.382;5.270;2023-07-28T05:31:31;100624.47;;;17.79;100.00
47054;BME280;32811;52.382;5.270;2023-07-28T05:33:58;100627.00;;;17.83;100.00
47054;BME280;32811;52.382;5.270;2023-07-28T05:36:25;100616.63;;;17.82;100.00
47054;BME280;32811;52.382;5.270;2023-07-28T05:38:52;100619.13;;;17.85;100.00
47054;BME280;32811;52.382;5.270;2023-07-28T05:41:20;100616.53;;;17.83;100.00
47054;BME280;32811;52.382;5.270;2023-07-28T05:43:46;100623.31;;;17.91;100.00
47054;BME280;32811;52.382;5.270;2023-07-28T05:46:17;100605.25;;;17.83;100.00
47054;BME280;32811;52.382;5.270;2023-07-28T05:48:43;100606.19;;;17.82;100.00
47054;BME280;32811;52.382;5.270;2023-07-28T05:51:10;100624.25;;;17.88;100.00
47054;BME280;32811;52.382;5.270;2023-07-28T05:53:37;100617.97;;;17.95;100.00
47054;BME280;32811;52.382;5.270;2023-07-28T05:56:04;100629.13;;;18.00;100.00
47054;BME280;32811;52.382;5.270;2023-07-28T05:58:31;100632.69;;;17.98;100.00
47054;BME280;32811;52.382;5.270;2023-07-28T06:00:57;100636.16;;;17.98;100.00
47054;BME280;32811;52.382;5.270;2023-07-28T06:03:24;100616.53;;;17.83;100.00
47054;BME280;32811;52.382;5.270;2023-07-28T06:05:52;100632.00;;;17.91;100.00
47054;BME280;32811;52.382;5.270;2023-07-28T06:08:18;100641.50;;;17.94;100.00
47054;BME280;32811;52.382;5.270;2023-07-28T06:10:45;100639.75;;;17.94;100.00
47054;BME280;32811;52.382;5.270;2023-07-28T06:13:11;100644.81;;;17.99;100.00
47054;BME280;32811;52.382;5.270;2023-07-28T06:15:39;100640.28;;;18.05;100.00
47054;BME280;32811;52.382;5.270;2023-07-28T06:18:06;100649.59;;;18.14;100.00
47054;BME280;32811;52.382;5.270;2023-07-28T06:20:32;100647.78;;;18.16;100.00
47054;BME280;32811;52.382;5.270;2023-07-28T06:23:01;100638.25;;;18.15;100.00
47054;BME280;32811;52.382;5.270;2023-07-28T06:25:27;100631.28;;;18.16;100.00
47054;BME280;32811;52.382;5.270;2023-07-28T06:27:54;100653.72;;;18.21;100.00
47054;BME280;32811;52.382;5.270;2023-07-28T06:30:21;100647.84;;;18.15;100.00
47054;BME280;32811;52.382;5.270;2023-07-28T06:32:48;100631.59;;;18.05;100.00
47054;BME280;32811;52.382;5.270;2023-07-28T06:35:14;100659.03;;;18.20;100.00
47054;BME280;32811;52.382;5.270;2023-07-28T06:37:41;100660.75;;;18.19;100.00
47054;BME280;32811;52.382;5.270;2023-07-28T06:40:08;100660.75;;;18.19;100.00
47054;BME280;32811;52.382;5.270;2023-07-28T06:42:36;100663.38;;;18.19;100.00
47054;BME280;32811;52.382;5.270;2023-07-28T06:45:03;100665.06;;;18.22;100.00
47054;BME280;32811;52.382;5.270;2023-07-28T06:47:30;100672.75;;;18.27;100.00
47054;BME280;32811;52.382;5.270;2023-07-28T06:49:57;100667.38;;;18.31;100.00
47054;BME280;32811;52.382;5.270;2023-07-28T06:52:23;100673.31;;;18.36;100.00
47054;BME280;32811;52.382;5.270;2023-07-28T06:54:50;100672.50;;;18.34;100.00
47054;BME280;32811;52.382;5.270;2023-07-28T06:57:17;100683.94;;;18.30;100.00
47054;BME280;32811;52.382;5.270;2023-07-28T06:59:43;100677.91;;;18.28;100.00
47054;BME280;32811;52.382;5.270;2023-07-28T07:02:10;100681.44;;;18.27;100.00
47054;BME280;32811;52.382;5.270;2023-07-28T07:04:37;100688.28;;;18.31;100.00
47054;BME280;32811;52.382;5.270;2023-07-28T07:09:45;100692.59;;;18.32;100.00
47054;BME280;32811;52.382;5.270;2023-07-28T07:12:12;100690.38;;;18.20;100.00
47054;BME280;32811;52.382;5.270;2023-07-28T07:14:38;100696.34;;;18.23;100.00
47054;BME280;32811;52.382;5.270;2023-07-28T07:17:05;100691.41;;;18.14;100.00
47054;BME280;32811;52.382;5.270;2023-07-28T07:22:07;100697.41;;;18.18;100.00
47054;BME280;32811;52.382;5.270;2023-07-28T07:27:21;100693.44;;;18.04;100.00
47054;BME280;32811;52.382;5.270;2023-07-28T07:29:49;100707.06;;;18.14;100.00
47054;BME280;32811;52.382;5.270;2023-07-28T07:40:22;100717.38;;;18.19;100.00
47054;BME280;32811;52.382;5.270;2023-07-28T07:42:52;100725.16;;;18.22;100.00
47054;BME280;32811;52.382;5.270;2023-07-28T07:45:19;100726.81;;;18.24;100.00
47054;BME280;32811;52.382;5.270;2023-07-28T07:47:46;100728.44;;;18.29;100.00
47054;BME280;32811;52.382;5.270;2023-07-28T07:55:29;100744.88;;;18.32;100.00
47054;BME280;32811;52.382;5.270;2023-07-28T07:57:57;100739.81;;;18.26;100.00
47054;BME280;32811;52.382;5.270;2023-07-28T08:00:24;100748.44;;;18.30;100.00
47054;BME280;32811;52.382;5.270;2023-07-28T08:02:51;100751.84;;;18.32;100.00
47054;BME280;32811;52.382;5.270;2023-07-28T08:05:17;100746.66;;;18.30;100.00
47054;BME280;32811;52.382;5.270;2023-07-28T08:07:44;100751.53;;;18.42;100.00
47054;BME280;32811;52.382;5.270;2023-07-28T08:10:11;100748.75;;;18.49;100.00
47054;BME280;32811;52.382;5.270;2023-07-28T08:12:37;100742.72;;;18.46;100.00
47054;BME280;32811;52.382;5.270;2023-07-28T08:15:04;100749.00;;;18.39;100.00
47054;BME280;32811;52.382;5.270;2023-07-28T08:17:31;100743.16;;;18.31;100.00
47054;BME280;32811;52.382;5.270;2023-07-28T08:19:58;100742.84;;;18.42;100.00
47054;BME280;32811;52.382;5.270;2023-07-28T08:22:24;100734.94;;;18.43;100.00
47054;BME280;32811;52.382;5.270;2023-07-28T08:24:51;100743.38;;;18.53;100.00
47054;BME280;32811;52.382;5.270;2023-07-28T08:27:18;100748.47;;;18.58;100.00
47054;BME280;32811;52.382;5.270;2023-07-28T08:29:45;100755.66;;;18.51;100.00
47054;BME280;32811;52.382;5.270;2023-07-28T08:32:12;100746.22;;;18.45;100.00
47054;BME280;32811;52.382;5.270;2023-07-28T08:34:38;100738.66;;;18.36;100.00
47054;BME280;32811;52.382;5.270;2023-07-28T08:37:05;100751.44;;;18.45;100.00
47054;BME280;32811;52.382;5.270;2023-07-28T08:39:32;100742.78;;;18.43;100.00
47054;BME280;32811;52.382;5.270;2023-07-28T08:42:03;100746.91;;;18.51;100.00
47054;BME280;32811;52.382;5.270;2023-07-28T08:44:34;100749.53;;;18.51;100.00
47054;BME280;32811;52.382;5.270;2023-07-28T08:47:03;100755.44;;;18.57;100.00
47054;BME280;32811;52.382;5.270;2023-07-28T08:49:33;100734.44;;;18.60;100.00
47054;BME280;32811;52.382;5.270;2023-07-28T08:52:02;100757.56;;;18.74;100.00
47054;BME280;32811;52.382;5.270;2023-07-28T08:54:30;100762.78;;;18.74;100.00
47054;BME280;32811;52.382;5.270;2023-07-28T08:56:59;100756.59;;;18.77;100.00
47054;BME280;32811;52.382;5.270;2023-07-28T08:59:27;100765.28;;;18.79;100.00
47054;BME280;32811;52.382;5.270;2023-07-28T09:01:56;100759.09;;;18.81;100.00
47054;BME280;32811;52.382;5.270;2023-07-28T09:04:24;100763.84;;;18.97;100.00
47054;BME280;32811;52.382;5.270;2023-07-28T09:06:51;100757.88;;;19.20;100.00
47054;BME280;32811;52.382;5.270;2023-07-28T09:09:20;100760.44;;;19.48;100.00
47054;BME280;32811;52.382;5.270;2023-07-28T09:11:52;100754.38;;;19.73;100.00
47054;BME280;32811;52.382;5.270;2023-07-28T09:14:22;100750.44;;;19.86;100.00
47054;BME280;32811;52.382;5.270;2023-07-28T09:16:52;100736.09;;;19.96;100.00
47054;BME280;32811;52.382;5.270;2023-07-28T09:19:20;100749.88;;;20.25;100.00
47054;BME280;32811;52.382;5.270;2023-07-28T09:22:00;100732.72;;;20.40;100.00
47054;BME280;32811;52.382;5.270;2023-07-28T09:24:32;100733.06;;;20.76;100.00
47054;BME280;32811;52.382;5.270;2023-07-28T09:27:00;100716.09;;;21.49;100.00
47054;BME280;32811;52.382;5.270;2023-07-28T09:29:27;100717.28;;;22.02;100.00
47054;BME280;32811;52.382;5.270;2023-07-28T09:32:02;100729.16;;;22.11;100.00
47054;BME280;32811;52.382;5.270;2023-07-28T09:34:30;100711.94;;;21.85;100.00
47054;BME280;32811;52.382;5.270;2023-07-28T09:36:58;100722.84;;;21.75;100.00
47054;BME280;32811;52.382;5.270;2023-07-28T09:39:25;100720.84;;;21.62;100.00
47054;BME280;32811;52.382;5.270;2023-07-28T09:41:52;100724.19;;;22.24;100.00
47054;BME280;32811;52.382;5.270;2023-07-28T09:44:23;100724.69;;;22.70;100.00
47054;BME280;32811;52.382;5.270;2023-07-28T09:46:51;100707.13;;;23.07;100.00
47054;BME280;32811;52.382;5.270;2023-07-28T09:49:36;100710.66;;;22.33;100.00
47054;BME280;32811;52.382;5.270;2023-07-28T09:52:08;100718.56;;;22.12;100.00
47054;BME280;32811;52.382;5.270;2023-07-28T09:54:40;100720.38;;;22.31;100.00
47054;BME280;32811;52.382;5.270;2023-07-28T09:57:12;100713.78;;;22.22;100.00
47054;BME280;32811;52.382;5.270;2023-07-28T09:59:42;100714.34;;;22.29;100.00
47054;BME280;32811;52.382;5.270;2023-07-28T10:02:09;100715.91;;;22.33;100.00
47054;BME280;32811;52.382;5.270;2023-07-28T10:04:37;100715.44;;;22.04;100.00
47054;BME280;32811;52.382;5.270;2023-07-28T10:07:05;100726.38;;;21.95;100.00
47054;BME280;32811;52.382;5.270;2023-07-28T10:09:34;100712.69;;;22.64;100.00
47054;BME280;32811;52.382;5.270;2023-07-28T10:12:01;100714.31;;;22.48;100.00
47054;BME280;32811;52.382;5.270;2023-07-28T10:14:31;100715.91;;;22.33;100.00
47054;BME280;32811;52.382;5.270;2023-07-28T10:17:01;100713.38;;;21.71;100.00
47054;BME280;32811;52.382;5.270;2023-07-28T10:19:34;100718.72;;;21.49;100.00
47054;BME280;32811;52.382;5.270;2023-07-28T10:22:02;100714.28;;;21.91;100.00
47054;BME280;32811;52.382;5.270;2023-07-28T10:25:01;100716.06;;;21.70;100.00
47054;BME280;32811;52.382;5.270;2023-07-28T10:27:35;100712.97;;;21.40;100.00
47054;BME280;32811;52.382;5.270;2023-07-28T10:30:14;100719.72;;;21.47;100.00
47054;BME280;32811;52.382;5.270;2023-07-28T10:32:43;100722.72;;;21.58;100.00
47054;BME280;32811;52.382;5.270;2023-07-28T10:37:45;100723.38;;;21.63;100.00
47054;BME280;32811;52.382;5.270;2023-07-28T10:40:33;100721.78;;;21.80;100.00
47054;BME280;32811;52.382;5.270;2023-07-28T10:43:03;100730.91;;;22.31;100.00
47054;BME280;32811;52.382;5.270;2023-07-28T10:45:32;100721.56;;;22.24;100.00
47054;BME280;32811;52.382;5.270;2023-07-28T10:47:59;100724.16;;;22.05;100.00
47054;BME280;32811;52.382;5.270;2023-07-28T10:50:28;100731.69;;;22.12;100.00
47054;BME280;32811;52.382;5.270;2023-07-28T10:52:56;100730.94;;;22.10;100.00
47054;BME280;32811;52.382;5.270;2023-07-28T10:55:24;100737.06;;;22.30;100.00
47054;BME280;32811;52.382;5.270;2023-07-28T10:57:53;100730.13;;;22.29;100.00
47054;BME280;32811;52.382;5.270;2023-07-28T11:00:21;100724.38;;;22.19;100.00
47054;BME280;32811;52.382;5.270;2023-07-28T11:02:51;100732.22;;;22.21;100.00
47054;BME280;32811;52.382;5.270;2023-07-28T11:05:27;100745.63;;;22.14;100.00
47054;BME280;32811;52.382;5.270;2023-07-28T11:08:00;100733.47;;;21.93;100.00
47054;BME280;32811;52.382;5.270;2023-07-28T11:10:31;100732.47;;;21.95;100.00
47054;BME280;32811;52.382;5.270;2023-07-28T11:12:59;100734.78;;;21.83;100.00
47054;BME280;32811;52.382;5.270;2023-07-28T11:15:41;100746.34;;;22.18;100.00
47054;BME280;32811;52.382;5.270;2023-07-28T11:18:08;100742.13;;;22.34;100.00
47054;BME280;32811;52.382;5.270;2023-07-28T11:20:36;100742.84;;;22.38;100.00
47054;BME280;32811;52.382;5.270;2023-07-28T11:23:04;100741.22;;;22.35;100.00
47054;BME280;32811;52.382;5.270;2023-07-28T11:25:32;100739.34;;;22.56;100.00
47054;BME280;32811;52.382;5.270;2023-07-28T11:28:03;100747.94;;;22.41;100.00
47054;BME280;32811;52.382;5.270;2023-07-28T11:30:35;100752.00;;;22.29;100.00
47054;BME280;32811;52.382;5.270;2023-07-28T11:33:03;100746.81;;;22.28;100.00
47054;BME280;32811;52.382;5.270;2023-07-28T11:35:30;100749.50;;;22.45;100.00
47054;BME280;32811;52.382;5.270;2023-07-28T11:37:57;100744.03;;;22.50;100.00
47054;BME280;32811;52.382;5.270;2023-07-28T11:40:24;100745.03;;;22.47;100.00
47054;BME280;32811;52.382;5.270;2023-07-28T11:42:54;100755.47;;;22.30;100.00
47054;BME280;32811;52.382;5.270;2023-07-28T11:45:22;100753.63;;;22.70;100.00
47054;BME280;32811;52.382;5.270;2023-07-28T11:47:56;100756.97;;;22.73;100.00
47054;BME280;32811;52.382;5.270;2023-07-28T11:50:24;100752.03;;;22.85;100.00
47054;BME280;32811;52.382;5.270;2023-07-28T11:52:51;100754.38;;;22.91;100.00
47054;BME280;32811;52.382;5.270;2023-07-28T11:55:19;100750.91;;;23.27;100.00
47054;BME280;32811;52.382;5.270;2023-07-28T11:57:47;100751.97;;;23.23;100.00
47054;BME280;32811;52.382;5.270;2023-07-28T12:00:14;100757.84;;;23.28;100.00
47054;BME280;32811;52.382;5.270;2023-07-28T12:02:44;100750.03;;;23.26;100.00
47054;BME280;32811;52.382;5.270;2023-07-28T12:05:15;100744.75;;;23.61;100.00
47054;BME280;32811;52.382;5.270;2023-07-28T12:07:48;100752.53;;;23.29;100.00
47054;BME280;32811;52.382;5.270;2023-07-28T12:10:15;100761.00;;;22.99;100.00
47054;BME280;32811;52.382;5.270;2023-07-28T12:13:07;100759.69;;;23.08;100.00
47054;BME280;32811;52.382;5.270;2023-07-28T12:15:40;100756.00;;;23.30;100.00
47054;BME280;32811;52.382;5.270;2023-07-28T12:18:14;100758.47;;;22.96;100.00
47054;BME280;32811;52.382;5.270;2023-07-28T12:20:48;100763.19;;;22.90;100.00
47054;BME280;32811;52.382;5.270;2023-07-28T12:23:18;100768.28;;;22.75;100.00
47054;BME280;32811;52.382;5.270;2023-07-28T12:25:49;100769.13;;;22.76;100.00
47054;BME280;32811;52.382;5.270;2023-07-28T12:28:17;100766.66;;;22.54;100.00
47054;BME280;32811;52.382;5.270;2023-07-28T12:30:46;100773.19;;;22.45;100.00
47054;BME280;32811;52.382;5.270;2023-07-28T12:33:16;100773.19;;;22.64;100.00
47054;BME280;32811;52.382;5.270;2023-07-28T12:35:45;100778.50;;;22.82;100.00
47054;BME280;32811;52.382;5.270;2023-07-28T12:38:16;100772.66;;;22.75;100.00
47054;BME280;32811;52.382;5.270;2023-07-28T12:40:46;100775.38;;;22.73;100.00
47054;BME280;32811;52.382;5.270;2023-07-28T12:43:16;100775.22;;;22.76;100.00
47054;BME280;32811;52.382;5.270;2023-07-28T12:45:45;100779.44;;;22.62;100.00
47054;BME280;32811;52.382;5.270;2023-07-28T12:48:15;100777.75;;;22.79;100.00
47054;BME280;32811;52.382;5.270;2023-07-28T12:50:45;100778.44;;;23.02;100.00
47054;BME280;32811;52.382;5.270;2023-07-28T12:53:13;100781.06;;;22.83;100.00
47054;BME280;32811;52.382;5.270;2023-07-28T12:55:44;100780.09;;;22.67;100.00
47054;BME280;32811;52.382;5.270;2023-07-28T12:58:13;100784.13;;;22.74;100.00
47054;BME280;32811;52.382;5.270;2023-07-28T13:00:43;100778.22;;;23.07;100.00
47054;BME280;32811;52.382;5.270;2023-07-28T13:03:13;100781.41;;;23.13;100.00
47054;BME280;32811;52.382;5.270;2023-07-28T13:05:40;100778.53;;;23.18;100.00
47054;BME280;32811;52.382;5.270;2023-07-28T13:08:10;100785.88;;;22.92;100.00
47054;BME280;32811;52.382;5.270;2023-07-28T13:10:37;100784.13;;;22.74;100.00